createdAt,value
2022-12-25T00:00:21.138Z,16.10
2022-12-25T00:02:56.222Z,13.35
2022-12-25T00:05:29.672Z,11.77
2022-12-25T00:08:03.053Z,14.60
2022-12-25T00:10:43.024Z,16.63
2022-12-25T00:13:18.368Z,11.18
2022-12-25T00:15:51.768Z,10.02
2022-12-25T00:18:27.265Z,20.80
2022-12-25T00:21:02.067Z,11.77
2022-12-25T00:23:36.644Z,11.52
2022-12-25T00:26:12.239Z,12.30
2022-12-25T00:28:45.901Z,13.00
2022-12-25T00:31:21.709Z,12.27
2022-12-25T00:33:56.475Z,11.52
2022-12-25T00:36:31.929Z,14.35
2022-12-25T00:39:07.334Z,12.57
2022-12-25T00:44:31.149Z,13.68
2022-12-25T00:47:05.034Z,12.68
2022-12-25T00:49:40.069Z,13.55
2022-12-25T00:52:13.358Z,14.75
2022-12-25T00:54:46.731Z,10.75
2022-12-25T00:57:20.070Z,14.85
2022-12-25T00:59:53.409Z,12.20
2022-12-25T01:02:26.969Z,11.70
2022-12-25T01:05:01.887Z,11.60
2022-12-25T01:07:35.213Z,14.05
2022-12-25T01:10:22.605Z,13.57
2022-12-25T01:12:56.038Z,11.30
2022-12-25T01:15:29.454Z,9.80
2022-12-25T01:18:07.717Z,10.50
2022-12-25T01:20:43.222Z,10.88
2022-12-25T01:23:17.110Z,14.68
2022-12-25T01:28:24.153Z,13.68
2022-12-25T01:30:57.500Z,10.00
2022-12-25T01:33:30.849Z,17.17
2022-12-25T01:36:06.428Z,14.98
2022-12-25T01:38:41.441Z,11.13
2022-12-25T01:41:17.055Z,14.77
2022-12-25T01:44:03.383Z,15.35
2022-12-25T01:46:36.953Z,14.15
2022-12-25T01:49:14.505Z,14.68
2022-12-25T01:51:53.394Z,13.13
2022-12-25T01:54:34.435Z,13.30
2022-12-25T01:57:13.223Z,12.15
2022-12-25T01:59:47.521Z,18.17
2022-12-25T02:02:21.623Z,12.43
2022-12-25T02:04:59.935Z,19.80
2022-12-25T02:07:41.241Z,14.43
2022-12-25T02:10:15.779Z,11.02
2022-12-25T02:12:49.965Z,9.98
2022-12-25T02:15:28.161Z,13.43
2022-12-25T02:18:07.242Z,14.90
2022-12-25T02:20:58.398Z,10.65
2022-12-25T02:23:56.524Z,14.73
2022-12-25T02:26:59.441Z,12.85
2022-12-25T02:29:43.372Z,11.68
2022-12-25T02:32:25.577Z,13.60
2022-12-25T02:35:04.325Z,10.40
2022-12-25T02:37:43.245Z,15.45
2022-12-25T02:40:20.939Z,12.73
2022-12-25T02:43:16.835Z,9.27
2022-12-25T02:46:13.242Z,13.30
2022-12-25T02:49:07.095Z,13.90
2022-12-25T02:52:02.980Z,13.15
2022-12-25T02:55:03.646Z,13.13
2022-12-25T02:58:00.309Z,13.70
2022-12-25T03:00:55.314Z,10.00
2022-12-25T03:06:44.508Z,12.25
2022-12-25T03:09:42.900Z,13.45
2022-12-25T03:12:21.366Z,11.50
2022-12-25T03:15:12.266Z,17.35
2022-12-25T03:17:45.735Z,15.65
2022-12-25T03:20:38.455Z,19.15
2022-12-25T03:23:32.195Z,17.13
2022-12-25T03:26:23.717Z,15.90
2022-12-25T03:28:57.106Z,14.18
2022-12-25T03:31:41.145Z,11.98
2022-12-25T03:38:02.783Z,15.15
2022-12-25T03:41:01.357Z,12.45
2022-12-25T03:44:04.072Z,16.60
2022-12-25T03:47:01.273Z,11.68
2022-12-25T03:50:02.437Z,10.75
2022-12-25T03:52:57.037Z,14.98
2022-12-25T03:55:48.512Z,10.77
2022-12-25T03:58:40.378Z,13.10
2022-12-25T04:01:31.631Z,10.60
2022-12-25T04:04:23.022Z,11.50
2022-12-25T04:07:13.733Z,10.80
2022-12-25T04:10:05.968Z,10.40
2022-12-25T04:12:56.715Z,16.45
2022-12-25T04:15:47.345Z,11.48
2022-12-25T04:18:38.351Z,12.63
2022-12-25T04:21:29.031Z,14.43
2022-12-25T04:24:19.689Z,11.77
2022-12-25T04:27:11.654Z,11.40
2022-12-25T04:30:02.327Z,13.48
2022-12-25T04:32:53.225Z,12.18
2022-12-25T04:35:43.787Z,15.55
2022-12-25T04:38:20.847Z,14.15
2022-12-25T04:40:54.239Z,12.77
2022-12-25T04:43:29.529Z,12.02
2022-12-25T04:46:04.410Z,7.82
2022-12-25T04:48:38.276Z,11.07
2022-12-25T04:53:49.727Z,11.15
2022-12-25T04:56:23.068Z,9.25
2022-12-25T04:58:57.770Z,14.50
2022-12-25T05:01:31.240Z,11.20
2022-12-25T05:04:04.680Z,10.38
2022-12-25T05:06:38.069Z,10.05
2022-12-25T05:09:11.755Z,12.23
2022-12-25T05:14:19.551Z,9.27
2022-12-25T05:16:53.203Z,8.48
2022-12-25T05:19:27.058Z,11.52
2022-12-25T05:22:00.372Z,11.57
2022-12-25T05:24:33.869Z,13.48
2022-12-25T05:27:07.168Z,8.38
2022-12-25T05:29:41.877Z,13.80
2022-12-25T05:32:15.317Z,15.23
2022-12-25T05:34:48.634Z,10.98
2022-12-25T05:37:21.962Z,10.43
2022-12-25T05:39:55.326Z,8.27
2022-12-25T05:42:28.563Z,13.20
2022-12-25T05:45:03.278Z,9.27
2022-12-25T05:47:36.651Z,7.90
2022-12-25T05:50:10.577Z,11.32
2022-12-25T05:52:43.951Z,12.38
2022-12-25T05:55:17.593Z,13.93
2022-12-25T05:57:50.924Z,10.50
2022-12-25T06:00:25.567Z,11.75
2022-12-25T06:02:59.086Z,7.68
2022-12-25T06:05:33.039Z,11.68
2022-12-25T06:08:06.488Z,12.00
2022-12-25T06:10:39.804Z,12.18
2022-12-25T06:13:13.225Z,9.63
2022-12-25T06:15:47.910Z,8.90
2022-12-25T06:18:21.200Z,7.78
2022-12-25T06:20:54.553Z,10.20
2022-12-25T06:23:27.928Z,12.43
2022-12-25T06:26:01.227Z,8.13
2022-12-25T06:28:34.716Z,9.35
2022-12-25T06:31:11.140Z,9.63
2022-12-25T06:33:44.814Z,10.60
2022-12-25T06:36:20.066Z,11.75
2022-12-25T06:38:53.754Z,16.33
2022-12-25T06:41:28.480Z,12.50
2022-12-25T06:44:03.013Z,10.88
2022-12-25T06:46:37.722Z,17.33
2022-12-25T06:49:11.689Z,11.88
2022-12-25T06:51:45.020Z,10.73
2022-12-25T06:54:18.344Z,17.35
2022-12-25T06:56:51.695Z,10.20
2022-12-25T06:59:25.447Z,13.43
2022-12-25T07:04:38.165Z,12.75
2022-12-25T07:07:11.788Z,9.95
2022-12-25T07:09:45.211Z,14.82
2022-12-25T07:12:23.222Z,10.60
2022-12-25T07:14:57.170Z,17.38
2022-12-25T07:17:31.952Z,11.02
2022-12-25T07:20:06.999Z,13.02
2022-12-25T07:22:40.375Z,13.38
2022-12-25T07:25:13.715Z,10.93
2022-12-25T07:27:47.040Z,12.07
2022-12-25T07:30:20.697Z,13.93
2022-12-25T07:32:55.494Z,12.57
2022-12-25T07:35:28.909Z,10.52
2022-12-25T07:38:02.320Z,16.30
2022-12-25T07:40:35.897Z,13.23
2022-12-25T07:45:42.896Z,20.33
2022-12-25T07:48:17.634Z,36.22
2022-12-25T07:50:56.224Z,32.17
2022-12-25T07:53:30.341Z,32.92
2022-12-25T07:56:05.944Z,34.88
2022-12-25T07:58:39.489Z,32.38
2022-12-25T08:01:16.690Z,33.67
2022-12-25T08:03:52.553Z,29.95
2022-12-25T08:06:29.782Z,27.75
2022-12-25T08:09:06.419Z,30.50
2022-12-25T08:11:40.467Z,23.52
2022-12-25T08:14:14.001Z,22.58
2022-12-25T08:16:47.505Z,25.35
2022-12-25T08:19:22.332Z,22.65
2022-12-25T08:21:55.786Z,16.00
2022-12-25T08:24:29.242Z,14.68
2022-12-25T08:27:02.707Z,25.50
2022-12-25T08:29:36.072Z,26.50
2022-12-25T08:32:09.472Z,16.83
2022-12-25T08:34:44.452Z,17.75
2022-12-25T08:37:17.885Z,18.50
2022-12-25T08:39:51.373Z,18.00
2022-12-25T08:42:24.765Z,14.80
2022-12-25T08:44:58.239Z,13.43
2022-12-25T08:47:31.906Z,13.73
2022-12-25T08:52:41.528Z,20.45
2022-12-25T08:55:15.579Z,16.20
2022-12-25T08:57:48.986Z,21.25
2022-12-25T09:00:22.541Z,18.27
2022-12-25T09:02:56.146Z,18.02
2022-12-25T09:10:38.228Z,18.83
2022-12-25T09:13:12.837Z,23.23
2022-12-25T09:15:46.375Z,45.05
2022-12-25T09:18:19.840Z,26.48
2022-12-25T09:21:01.459Z,26.60
2022-12-25T09:23:35.608Z,17.88
2022-12-25T09:26:11.581Z,20.77
2022-12-25T09:28:51.323Z,27.75
2022-12-25T09:31:25.890Z,28.17
2022-12-25T09:36:34.607Z,29.87
2022-12-25T09:39:07.932Z,27.58
2022-12-25T09:41:53.224Z,33.60
2022-12-25T09:44:30.225Z,26.55
2022-12-25T09:47:10.877Z,26.75
2022-12-25T09:49:51.899Z,25.75
2022-12-25T09:52:35.876Z,22.00
2022-12-25T09:55:19.759Z,21.08
2022-12-25T09:57:56.028Z,25.02
2022-12-25T10:00:36.334Z,15.98
2022-12-25T10:03:27.780Z,19.00
2022-12-25T10:06:12.732Z,19.08
2022-12-25T10:09:12.912Z,17.98
2022-12-25T10:12:09.578Z,16.17
2022-12-25T10:15:07.993Z,18.08
2022-12-25T10:17:50.598Z,15.80
2022-12-25T10:20:41.364Z,15.45
2022-12-25T10:23:20.412Z,11.88
2022-12-25T10:25:55.764Z,17.13
2022-12-25T10:28:36.103Z,10.15
2022-12-25T10:31:20.376Z,10.18
2022-12-25T10:33:54.949Z,13.80
2022-12-25T10:36:30.075Z,10.13
2022-12-25T10:39:03.438Z,12.63
2022-12-25T10:41:50.586Z,7.63
2022-12-25T10:44:25.386Z,10.73
2022-12-25T10:47:00.681Z,9.45
2022-12-25T10:49:36.394Z,9.05
2022-12-25T10:52:22.046Z,10.75
2022-12-25T10:54:56.482Z,10.63
2022-12-25T10:57:31.306Z,7.90
2022-12-25T11:00:07.301Z,4.97
2022-12-25T11:02:41.981Z,8.65
2022-12-25T11:05:19.413Z,9.05
2022-12-25T11:07:55.269Z,7.13
2022-12-25T11:10:32.519Z,8.63
2022-12-25T11:13:09.266Z,5.78
2022-12-25T11:15:45.428Z,4.57
2022-12-25T11:18:21.771Z,6.95
2022-12-25T11:20:57.977Z,4.68
2022-12-25T11:23:33.754Z,6.03
2022-12-25T11:26:11.734Z,5.95
2022-12-25T11:28:47.543Z,7.65
2022-12-25T11:31:22.640Z,6.28
2022-12-25T11:34:00.517Z,8.07
2022-12-25T11:36:45.231Z,6.80
2022-12-25T11:39:25.411Z,8.88
2022-12-25T11:42:03.103Z,4.00
2022-12-25T11:44:46.680Z,5.82
2022-12-25T11:47:25.903Z,5.88
2022-12-25T11:50:02.560Z,5.35
2022-12-25T11:52:40.100Z,4.25
2022-12-25T11:55:20.132Z,6.80
2022-12-25T11:57:58.448Z,4.20
2022-12-25T12:00:36.541Z,5.35
2022-12-25T12:03:17.763Z,5.28
2022-12-25T12:05:54.966Z,4.63
2022-12-25T12:08:28.348Z,4.57
2022-12-25T12:11:22.256Z,4.72
2022-12-25T12:14:06.559Z,4.18
2022-12-25T12:16:41.418Z,4.53
2022-12-25T12:19:24.971Z,3.42
2022-12-25T12:22:00.923Z,3.58
2022-12-25T12:24:37.211Z,4.70
2022-12-25T12:27:28.117Z,4.75
2022-12-25T12:30:03.337Z,4.35
2022-12-25T12:32:42.616Z,2.65
2022-12-25T12:35:20.035Z,4.80
2022-12-25T12:37:56.115Z,3.33
2022-12-25T12:40:34.618Z,6.25
2022-12-25T12:43:32.945Z,3.28
2022-12-25T12:46:15.893Z,3.05
2022-12-25T12:48:52.666Z,3.83
2022-12-25T12:51:31.284Z,4.10
2022-12-25T12:54:20.530Z,3.17
2022-12-25T12:57:01.203Z,3.22
2022-12-25T12:59:40.712Z,3.58
2022-12-25T13:02:43.540Z,3.90
2022-12-25T13:05:26.558Z,3.67
2022-12-25T13:08:13.182Z,3.95
2022-12-25T13:10:50.673Z,3.72
2022-12-25T13:13:28.538Z,3.30
2022-12-25T13:16:02.050Z,3.42
2022-12-25T13:18:36.261Z,3.28
2022-12-25T13:21:19.093Z,3.95
2022-12-25T13:23:58.420Z,2.75
2022-12-25T13:26:32.334Z,3.28
2022-12-25T13:29:11.216Z,3.47
2022-12-25T13:31:45.094Z,3.83
2022-12-25T13:34:25.215Z,4.40
2022-12-25T13:37:00.733Z,2.47
2022-12-25T13:39:35.478Z,2.65
2022-12-25T13:42:10.404Z,3.05
2022-12-25T13:44:46.570Z,3.25
2022-12-25T13:47:23.766Z,3.55
2022-12-25T13:49:58.999Z,3.10
2022-12-25T13:52:37.349Z,3.28
2022-12-25T13:55:14.907Z,2.67
2022-12-25T13:57:52.793Z,3.25
2022-12-25T14:00:33.321Z,3.70
2022-12-25T14:03:08.408Z,3.22
2022-12-25T14:05:43.549Z,2.80
2022-12-25T14:08:23.287Z,2.38
2022-12-25T14:10:57.873Z,2.95
2022-12-25T14:13:33.988Z,2.75
2022-12-25T14:16:08.941Z,3.72
2022-12-25T14:18:52.362Z,2.60
2022-12-25T14:21:30.234Z,3.63
2022-12-25T14:24:05.575Z,2.22
2022-12-25T14:26:39.418Z,2.90
2022-12-25T14:29:18.098Z,3.75
2022-12-25T14:31:54.459Z,2.72
2022-12-25T14:34:29.644Z,2.55
2022-12-25T14:37:05.368Z,2.40
2022-12-25T14:39:40.366Z,4.78
2022-12-25T14:42:19.941Z,4.57
2022-12-25T14:45:03.392Z,2.40
2022-12-25T14:47:52.201Z,3.95
2022-12-25T14:50:31.502Z,3.13
2022-12-25T14:53:04.887Z,2.20
2022-12-25T14:55:40.954Z,2.45
2022-12-25T14:58:22.497Z,2.67
2022-12-25T15:00:57.765Z,2.25
2022-12-25T15:03:33.900Z,3.05
2022-12-25T15:06:19.111Z,5.13
2022-12-25T15:09:03.441Z,2.63
2022-12-25T15:11:38.390Z,2.75
2022-12-25T15:14:11.679Z,2.92
2022-12-25T15:16:48.232Z,3.28
2022-12-25T15:19:26.641Z,2.97
2022-12-25T15:22:03.746Z,3.65
2022-12-25T15:24:37.153Z,3.15
2022-12-25T15:27:17.399Z,3.85
2022-12-25T15:32:44.385Z,3.80
2022-12-25T15:35:20.791Z,3.20
2022-12-25T15:37:54.279Z,6.03
2022-12-25T15:40:27.950Z,5.07
2022-12-25T15:43:06.423Z,3.95
2022-12-25T15:45:46.551Z,5.10
2022-12-25T15:48:19.997Z,4.18
2022-12-25T15:50:53.600Z,3.92
2022-12-25T15:53:27.099Z,4.05
2022-12-25T15:56:00.833Z,4.57
2022-12-25T16:03:42.025Z,4.60
2022-12-25T16:06:17.591Z,5.50
2022-12-25T16:08:51.783Z,5.35
2022-12-25T16:13:59.661Z,4.70
2022-12-25T16:16:33.194Z,5.00
2022-12-25T16:19:07.466Z,4.38
2022-12-25T16:21:43.359Z,5.22
2022-12-25T16:24:17.314Z,4.68
2022-12-25T16:26:50.738Z,5.40
2022-12-25T16:29:28.332Z,5.18
2022-12-25T16:32:02.487Z,5.65
2022-12-25T16:34:36.170Z,4.40
2022-12-25T16:39:44.028Z,4.75
2022-12-25T16:42:17.730Z,4.93
2022-12-25T16:44:55.823Z,5.15
2022-12-25T16:47:29.288Z,4.35
2022-12-25T16:50:03.594Z,5.45
2022-12-25T16:52:37.652Z,4.25
2022-12-25T16:55:11.534Z,5.28
2022-12-25T17:00:23.120Z,6.07
2022-12-25T17:02:57.123Z,6.65
2022-12-25T17:05:30.814Z,5.28
2022-12-25T17:08:04.295Z,4.60
2022-12-25T17:10:39.803Z,5.55
2022-12-25T17:13:13.540Z,4.57
2022-12-25T17:18:24.436Z,4.93
2022-12-25T17:20:58.305Z,4.55
2022-12-25T17:23:31.874Z,4.78
2022-12-25T17:26:06.721Z,5.65
2022-12-25T17:28:40.527Z,7.10
2022-12-25T17:33:49.491Z,4.53
2022-12-25T17:38:56.889Z,3.75
2022-12-25T17:41:30.492Z,4.00
2022-12-25T17:44:04.380Z,4.18
2022-12-25T17:46:39.308Z,5.40
2022-12-25T17:49:16.527Z,5.22
2022-12-25T17:51:50.052Z,5.50
2022-12-25T17:54:23.540Z,3.78
2022-12-25T17:56:56.965Z,5.05
2022-12-25T17:59:30.367Z,6.22
2022-12-25T18:02:05.490Z,5.63
2022-12-25T18:04:39.166Z,5.60
2022-12-25T18:07:12.595Z,5.57
2022-12-25T18:09:46.161Z,5.00
2022-12-25T18:12:19.653Z,9.27
2022-12-25T18:14:53.633Z,9.55
2022-12-25T18:17:29.432Z,5.85
2022-12-25T18:20:03.408Z,13.02
2022-12-25T18:22:37.086Z,9.85
2022-12-25T18:25:12.276Z,14.43
2022-12-25T18:30:20.381Z,12.00
2022-12-25T18:32:55.201Z,13.48
2022-12-25T18:35:29.942Z,11.68
2022-12-25T18:38:03.237Z,18.25
2022-12-25T18:40:40.941Z,12.20
2022-12-25T18:43:15.345Z,15.60
2022-12-25T18:45:57.587Z,16.25
2022-12-25T18:48:33.549Z,16.20
2022-12-25T18:51:09.605Z,12.82
2022-12-25T18:53:43.092Z,20.80
2022-12-25T18:56:18.556Z,21.13
2022-12-25T18:58:52.396Z,17.90
2022-12-25T19:04:05.252Z,14.10
2022-12-25T19:06:39.348Z,13.77
2022-12-25T19:09:12.984Z,18.45
2022-12-25T19:11:47.013Z,15.10
2022-12-25T19:14:20.454Z,20.92
2022-12-25T19:16:54.279Z,19.13
2022-12-25T19:19:29.101Z,19.73
2022-12-25T19:22:03.816Z,19.08
2022-12-25T19:24:37.533Z,16.55
2022-12-25T19:29:44.551Z,22.00
2022-12-25T19:32:17.869Z,18.25
2022-12-25T19:34:52.582Z,20.42
2022-12-25T19:37:25.926Z,19.13
2022-12-25T19:39:59.490Z,20.70
2022-12-25T19:42:32.858Z,15.35
2022-12-25T19:45:07.857Z,17.27
2022-12-25T19:47:44.284Z,17.08
2022-12-25T19:50:19.211Z,24.23
2022-12-25T19:52:52.559Z,19.95
2022-12-25T19:55:25.990Z,21.10
2022-12-25T19:57:59.348Z,28.83
2022-12-25T20:00:33.704Z,18.55
2022-12-25T20:03:07.702Z,18.88
2022-12-25T20:05:45.801Z,22.83
2022-12-25T20:08:19.855Z,21.80
2022-12-25T20:10:54.433Z,19.90
2022-12-25T20:13:28.325Z,28.67
2022-12-25T20:16:02.280Z,21.23
2022-12-25T20:18:36.436Z,19.02
2022-12-25T20:21:14.796Z,15.93
2022-12-25T20:23:50.577Z,16.77
2022-12-25T20:26:26.779Z,19.73
2022-12-25T20:29:00.827Z,17.40
2022-12-25T20:31:36.003Z,17.08
2022-12-25T20:34:12.311Z,19.27
2022-12-25T20:36:49.442Z,16.38
2022-12-25T20:39:23.615Z,19.13
2022-12-25T20:41:58.384Z,14.18
2022-12-25T20:44:31.986Z,16.88
2022-12-25T20:47:05.714Z,17.17
2022-12-25T20:52:14.168Z,16.42
2022-12-25T20:54:47.979Z,16.45
2022-12-25T20:59:55.190Z,18.02
2022-12-25T21:05:12.527Z,14.02
2022-12-25T21:07:47.279Z,15.50
2022-12-25T21:10:20.796Z,14.45
2022-12-25T21:12:54.476Z,12.38
2022-12-25T21:15:28.074Z,15.30
2022-12-25T21:18:03.078Z,18.08
2022-12-25T21:20:36.724Z,12.88
2022-12-25T21:23:11.837Z,12.27
2022-12-25T21:25:48.806Z,12.38
2022-12-25T21:28:22.846Z,13.77
2022-12-25T21:30:56.390Z,10.95
2022-12-25T21:33:47.501Z,17.83
2022-12-25T21:36:23.989Z,19.70
2022-12-25T21:39:00.713Z,15.63
2022-12-25T21:41:36.148Z,17.25
2022-12-25T21:44:09.899Z,15.57
2022-12-25T21:46:43.389Z,16.27
2022-12-25T21:49:37.374Z,12.77
2022-12-25T21:52:09.797Z,11.07
2022-12-25T21:54:44.764Z,13.23
2022-12-25T21:57:18.174Z,11.15
2022-12-25T21:59:51.526Z,9.30
2022-12-25T22:02:25.028Z,9.45
2022-12-25T22:04:58.539Z,14.18
2022-12-25T22:07:32.614Z,9.40
2022-12-25T22:10:08.275Z,8.52
2022-12-25T22:12:59.412Z,12.35
2022-12-25T22:15:50.228Z,9.88
2022-12-25T22:18:41.137Z,8.88
2022-12-25T22:21:20.248Z,10.60
2022-12-25T22:23:53.611Z,10.30
2022-12-25T22:26:28.420Z,10.48
2022-12-25T22:29:01.814Z,11.25
2022-12-25T22:31:39.318Z,10.45
2022-12-25T22:34:17.070Z,9.48
2022-12-25T22:36:50.510Z,11.05
2022-12-25T22:39:23.973Z,9.38
2022-12-25T22:42:00.794Z,14.20
2022-12-25T22:44:34.850Z,9.23
2022-12-25T22:47:08.510Z,13.23
2022-12-25T22:49:42.081Z,9.07
2022-12-25T22:52:15.484Z,8.43
2022-12-25T22:54:48.853Z,12.15
2022-12-25T22:57:23.757Z,10.80
2022-12-25T22:59:57.179Z,10.50
2022-12-25T23:02:31.398Z,12.07
2022-12-25T23:07:38.521Z,12.53
2022-12-25T23:10:12.384Z,9.75
2022-12-25T23:15:37.884Z,8.98
2022-12-25T23:18:29.078Z,10.10
2022-12-25T23:21:20.652Z,9.95
2022-12-25T23:24:11.431Z,11.75
2022-12-25T23:26:45.411Z,9.02
2022-12-25T23:29:37.306Z,9.40
2022-12-25T23:32:13.328Z,10.13
2022-12-25T23:34:46.938Z,11.07
2022-12-25T23:37:20.877Z,10.15
2022-12-25T23:39:54.279Z,11.07
2022-12-25T23:42:27.581Z,10.70
2022-12-25T23:45:02.272Z,12.80
2022-12-25T23:47:35.644Z,9.88
2022-12-25T23:50:09.569Z,11.38
2022-12-25T23:52:42.957Z,12.88
2022-12-25T23:55:17.246Z,10.38
2022-12-25T23:57:50.596Z,9.80
